Pagina principale
METAR-TAF:

METAR-TAF

Aeroporti :

Emmen, Svizzera

latitudine: 47-05-32N, longitudine: 8-18-16E, altezza: 426 m

Osservazione

Il bollettino è stato emesso 41 minuti fa, alle 09:50 UTC
Vento 1 kt da direzioni variabili
Temperature 10°C
Umidità 93%
Pressione 1022 hPa
Visibilità 10 km o più
Poco nuvoloso ad un'altezza di 300 ft

METAR: LSME 210950Z VRB01KT 9999 FEW003 10/09 Q1022 RMK BLU+

Ora: 12:31 (10:31 UTC)


TAF: mancante

Osservazioni e previsioni meteorologiche di più di 4000 aeroporti (messaggi METAR e TAF).

Le stazioni disponibili sono rappresentate dai dischi gialli e rossi sulla carta.

Puntare il mouse per vedere il nome della stazione.

Clicca sopra per visualizzare le osservazioni e previsioni meteorologiche.

Per cambiare la mappa : fare clic sui pulsanti verdi con una croce nera per ingrandire, il pulsante verde con un trattino per diminuire, o sulla freccia verde per le mappe adiacenti.


METAR-TAF: